createdAt,value
2017-12-07T00:00:23.422Z,0
2017-12-07T00:01:23.684Z,0
2017-12-07T00:02:22.862Z,0
2017-12-07T00:03:23.373Z,0
2017-12-07T00:04:23.635Z,0
2017-12-07T00:05:22.795Z,0
2017-12-07T00:06:23.598Z,0
2017-12-07T00:07:23.289Z,0
2017-12-07T00:08:23.035Z,0
2017-12-07T00:09:22.999Z,0
2017-12-07T00:10:23.264Z,0
2017-12-07T00:11:23.250Z,0
2017-12-07T00:12:23.222Z,0
2017-12-07T00:13:22.662Z,0
2017-12-07T00:14:22.645Z,0
2017-12-07T00:15:23.196Z,0
2017-12-07T00:16:22.891Z,0
2017-12-07T00:17:23.176Z,0
2017-12-07T00:18:22.862Z,0
2017-12-07T00:19:23.112Z,0
2017-12-07T00:20:22.818Z,0
2017-12-07T00:21:22.801Z,0
2017-12-07T00:22:22.784Z,0
2017-12-07T00:23:23.045Z,0
2017-12-07T00:24:22.751Z,0
2017-12-07T00:25:23.054Z,0
2017-12-07T00:26:23.275Z,0
2017-12-07T00:27:22.734Z,0
2017-12-07T00:28:22.695Z,0
2017-12-07T00:29:22.939Z,0
2017-12-07T00:30:22.723Z,0
2017-12-07T00:31:22.667Z,0
2017-12-07T00:32:22.619Z,0
2017-12-07T00:33:22.351Z,0
2017-12-07T00:34:22.598Z,0
2017-12-07T00:35:22.593Z,0
2017-12-07T00:36:22.825Z,0
2017-12-07T00:37:22.824Z,0
2017-12-07T00:38:22.250Z,0
2017-12-07T00:39:22.770Z,0
2017-12-07T00:40:22.781Z,0
2017-12-07T00:41:22.739Z,0
2017-12-07T00:42:22.470Z,0
2017-12-07T00:43:23.009Z,0
2017-12-07T00:44:22.438Z,0
2017-12-07T00:45:22.415Z,0
2017-12-07T00:46:22.697Z,0
2017-12-07T00:47:23.189Z,0
2017-12-07T00:48:22.367Z,0
2017-12-07T00:49:22.628Z,0
2017-12-07T00:50:22.600Z,0
2017-12-07T00:51:22.321Z,0
2017-12-07T00:52:22.569Z,0
2017-12-07T00:53:22.811Z,0
2017-12-07T00:54:21.982Z,0
2017-12-07T00:55:22.246Z,0
2017-12-07T00:56:22.221Z,0
2017-12-07T00:57:22.274Z,0
2017-12-07T00:58:23.008Z,0
2017-12-07T00:59:22.171Z,0
2017-12-07T01:00:21.910Z,0
2017-12-07T01:01:21.865Z,0
2017-12-07T01:02:22.154Z,0
2017-12-07T01:03:22.117Z,0
2017-12-07T01:04:22.361Z,0
2017-12-07T01:05:22.071Z,0
2017-12-07T01:06:22.055Z,0
2017-12-07T01:07:22.309Z,0
2017-12-07T01:08:22.294Z,0
2017-12-07T01:09:22.287Z,0
2017-12-07T01:10:22.024Z,0
2017-12-07T01:11:22.259Z,0
2017-12-07T01:12:22.498Z,0
2017-12-07T01:13:21.953Z,0
2017-12-07T01:14:22.462Z,0
2017-12-07T01:15:22.234Z,0
2017-12-07T01:16:22.177Z,0
2017-12-07T01:17:22.146Z,0
2017-12-07T01:18:22.411Z,0
2017-12-07T01:19:21.841Z,0
2017-12-07T01:20:22.112Z,0
2017-12-07T01:21:22.094Z,0
2017-12-07T01:22:21.787Z,0
2017-12-07T01:23:21.801Z,0
2017-12-07T01:24:21.534Z,0
2017-12-07T01:25:21.803Z,0
2017-12-07T01:26:21.450Z,0
2017-12-07T01:27:21.717Z,0
2017-12-07T01:28:21.962Z,0
2017-12-07T01:29:21.944Z,0
2017-12-07T01:30:21.672Z,0
2017-12-07T01:31:21.686Z,0
2017-12-07T01:32:21.624Z,0
2017-12-07T01:33:21.878Z,0
2017-12-07T01:34:21.603Z,0
2017-12-07T01:35:21.850Z,0
2017-12-07T01:36:21.298Z,0
2017-12-07T01:37:22.083Z,0
2017-12-07T01:38:21.254Z,0
2017-12-07T01:39:21.532Z,0
2017-12-07T01:40:22.312Z,0
2017-12-07T01:41:21.744Z,0
2017-12-07T01:42:21.451Z,0
2017-12-07T01:43:21.448Z,0
2017-12-07T01:44:22.040Z,0
2017-12-07T01:45:21.425Z,0
2017-12-07T01:46:21.659Z,0
2017-12-07T01:47:21.100Z,0
2017-12-07T01:48:21.087Z,0
2017-12-07T01:49:21.610Z,0
2017-12-07T01:50:22.180Z,0
2017-12-07T01:51:21.030Z,0
2017-12-07T01:52:21.562Z,0
2017-12-07T01:53:21.002Z,0
2017-12-07T01:54:21.265Z,0
2017-12-07T01:55:21.807Z,0
2017-12-07T01:56:21.512Z,0
2017-12-07T01:57:21.203Z,0
2017-12-07T01:58:20.915Z,0
2017-12-07T01:59:20.901Z,0
2017-12-07T02:00:21.700Z,0
2017-12-07T02:01:21.413Z,0
2017-12-07T02:02:21.158Z,0
2017-12-07T02:03:20.834Z,0
2017-12-07T02:04:21.098Z,0
2017-12-07T02:05:21.067Z,0
2017-12-07T02:06:21.347Z,0
2017-12-07T02:07:21.047Z,0
2017-12-07T02:08:21.296Z,0
2017-12-07T02:09:21.840Z,0
2017-12-07T02:10:20.990Z,0
2017-12-07T02:11:21.519Z,0
2017-12-07T02:12:20.978Z,0
2017-12-07T02:13:20.943Z,0
2017-12-07T02:14:21.216Z,0
2017-12-07T02:15:21.735Z,0
2017-12-07T02:16:20.886Z,0
2017-12-07T02:17:21.156Z,0
2017-12-07T02:18:21.403Z,0
2017-12-07T02:19:21.103Z,0
2017-12-07T02:20:21.091Z,0
2017-12-07T02:21:21.634Z,0
2017-12-07T02:22:20.799Z,0
2017-12-07T02:23:20.785Z,0
2017-12-07T02:24:20.750Z,0
2017-12-07T02:25:21.019Z,0
2017-12-07T02:26:20.990Z,0
2017-12-07T02:27:20.988Z,0
2017-12-07T02:28:20.968Z,0
2017-12-07T02:29:20.939Z,0
2017-12-07T02:30:20.720Z,0
2017-12-07T02:31:21.460Z,0
2017-12-07T02:32:20.900Z,0
2017-12-07T02:33:20.606Z,0
2017-12-07T02:34:20.604Z,0
2017-12-07T02:35:20.573Z,0
2017-12-07T02:36:20.872Z,0
2017-12-07T02:37:20.538Z,0
2017-12-07T02:38:20.529Z,0
2017-12-07T02:39:20.503Z,0
2017-12-07T02:40:20.755Z,0
2017-12-07T02:41:20.482Z,0
2017-12-07T02:42:20.771Z,0
2017-12-07T02:43:20.447Z,0
2017-12-07T02:44:20.703Z,0
2017-12-07T02:45:20.406Z,0
2017-12-07T02:46:20.399Z,0
2017-12-07T02:47:20.905Z,0
2017-12-07T02:48:20.642Z,0
2017-12-07T02:49:20.069Z,0
2017-12-07T02:50:20.587Z,0
2017-12-07T02:51:20.859Z,0
2017-12-07T02:52:20.279Z,0
2017-12-07T02:53:20.537Z,0
2017-12-07T02:54:20.524Z,0
2017-12-07T02:55:20.516Z,0
2017-12-07T02:56:20.227Z,0
2017-12-07T02:57:20.212Z,0
2017-12-07T02:58:20.185Z,0
2017-12-07T02:59:20.181Z,0
2017-12-07T03:00:19.872Z,0
2017-12-07T03:01:20.146Z,0
2017-12-07T03:02:20.148Z,0
2017-12-07T03:03:20.102Z,0
2017-12-07T03:04:20.080Z,0
2017-12-07T03:05:19.787Z,0
2017-12-07T03:06:20.315Z,0
2017-12-07T03:07:20.024Z,0
2017-12-07T03:08:20.017Z,0
2017-12-07T03:09:20.261Z,0
2017-12-07T03:10:20.266Z,0
2017-12-07T03:11:19.683Z,0
2017-12-07T03:12:20.214Z,0
2017-12-07T03:13:19.937Z,0
2017-12-07T03:14:19.910Z,0
2017-12-07T03:15:19.616Z,0
2017-12-07T03:16:19.873Z,0
2017-12-07T03:17:19.598Z,0
2017-12-07T03:18:20.112Z,0
2017-12-07T03:19:20.108Z,0
2017-12-07T03:20:20.100Z,0
2017-12-07T03:21:19.786Z,0
2017-12-07T03:22:20.039Z,0
2017-12-07T03:23:19.492Z,0
2017-12-07T03:24:19.733Z,0
2017-12-07T03:25:19.723Z,0
2017-12-07T03:26:19.428Z,0
2017-12-07T03:27:19.974Z,0
2017-12-07T03:28:19.959Z,0
2017-12-07T03:29:19.651Z,0
2017-12-07T03:30:19.636Z,0
2017-12-07T03:31:19.624Z,0
2017-12-07T03:32:19.347Z,0
2017-12-07T03:33:19.309Z,0
2017-12-07T03:34:19.565Z,0
2017-12-07T03:35:20.110Z,0
2017-12-07T03:36:19.564Z,0
2017-12-07T03:37:20.352Z,0
2017-12-07T03:38:19.802Z,0
2017-12-07T03:39:19.477Z,0
2017-12-07T03:40:19.459Z,0
2017-12-07T03:41:19.988Z,0
2017-12-07T03:42:19.427Z,0
2017-12-07T03:43:19.701Z,0
2017-12-07T03:44:19.419Z,0
2017-12-07T03:45:19.374Z,0
2017-12-07T03:46:19.635Z,0
2017-12-07T03:47:19.107Z,0
2017-12-07T03:48:19.893Z,0
2017-12-07T03:49:19.602Z,0
2017-12-07T03:50:19.581Z,0
2017-12-07T03:51:19.821Z,0
2017-12-07T03:52:19.271Z,0
2017-12-07T03:53:19.509Z,0
2017-12-07T03:54:19.856Z,0
2017-12-07T03:55:19.204Z,0
2017-12-07T03:56:18.914Z,0
2017-12-07T03:57:19.190Z,0
2017-12-07T03:58:19.422Z,0
2017-12-07T03:59:18.907Z,0
2017-12-07T04:00:19.401Z,0
2017-12-07T04:01:19.388Z,0
2017-12-07T04:02:19.624Z,0
2017-12-07T04:03:18.827Z,0
2017-12-07T04:04:19.049Z,0
2017-12-07T04:05:19.300Z,0
2017-12-07T04:06:19.011Z,0
2017-12-07T04:07:19.266Z,0
2017-12-07T04:08:19.251Z,0
2017-12-07T04:09:18.954Z,0
2017-12-07T04:10:18.939Z,0
2017-12-07T04:11:19.480Z,0
2017-12-07T04:12:19.194Z,0
2017-12-07T04:13:18.615Z,0
2017-12-07T04:14:19.170Z,0
2017-12-07T04:15:19.131Z,0
2017-12-07T04:16:19.182Z,0
2017-12-07T04:17:19.100Z,0
2017-12-07T04:18:18.826Z,0
2017-12-07T04:19:18.561Z,0
2017-12-07T04:20:18.799Z,0
2017-12-07T04:21:22.980Z,0
2017-12-07T04:22:18.741Z,0
2017-12-07T04:23:18.997Z,0
2017-12-07T04:24:19.025Z,0
2017-12-07T04:25:18.441Z,0
2017-12-07T04:26:18.979Z,0
2017-12-07T04:27:18.680Z,0
2017-12-07T04:28:18.628Z,0
2017-12-07T04:29:18.362Z,0
2017-12-07T04:30:18.590Z,0
2017-12-07T04:31:18.301Z,0
2017-12-07T04:32:18.555Z,0
2017-12-07T04:33:18.282Z,0
2017-12-07T04:34:18.515Z,0
2017-12-07T04:35:18.768Z,0
2017-12-07T04:36:18.507Z,0
2017-12-07T04:37:18.191Z,0
2017-12-07T04:38:18.446Z,0
2017-12-07T04:39:18.156Z,0
2017-12-07T04:40:18.995Z,0
2017-12-07T04:41:18.663Z,0
2017-12-07T04:42:18.914Z,0
2017-12-07T04:43:18.355Z,0
2017-12-07T04:44:18.622Z,0
2017-12-07T04:45:18.321Z,0
2017-12-07T04:46:18.592Z,0
2017-12-07T04:47:18.286Z,0
2017-12-07T04:48:18.592Z,0
2017-12-07T04:49:18.527Z,0
2017-12-07T04:50:18.516Z,0
2017-12-07T04:51:18.531Z,0
2017-12-07T04:52:18.481Z,0
2017-12-07T04:53:18.187Z,0
2017-12-07T04:54:18.441Z,0
2017-12-07T04:55:18.690Z,0
2017-12-07T04:56:18.399Z,0
2017-12-07T04:57:18.141Z,0
2017-12-07T04:58:17.821Z,0
2017-12-07T04:59:18.094Z,0
2017-12-07T05:00:18.054Z,0
2017-12-07T05:01:18.326Z,0
2017-12-07T05:02:17.748Z,0
2017-12-07T05:03:18.272Z,0
2017-12-07T05:04:17.730Z,0
2017-12-07T05:05:18.232Z,0
2017-12-07T05:06:17.948Z,0
2017-12-07T05:07:18.762Z,0
2017-12-07T05:08:18.207Z,0
2017-12-07T05:09:18.672Z,0
2017-12-07T05:10:17.870Z,0
2017-12-07T05:11:18.128Z,0
2017-12-07T05:12:18.415Z,0
2017-12-07T05:13:17.821Z,0
2017-12-07T05:14:17.801Z,0
2017-12-07T05:15:18.351Z,0
2017-12-07T05:16:18.677Z,0
2017-12-07T05:17:17.772Z,0
2017-12-07T05:18:17.488Z,0
2017-12-07T05:19:17.709Z,0
2017-12-07T05:20:17.969Z,0
2017-12-07T05:21:17.963Z,0
2017-12-07T05:22:17.678Z,0
2017-12-07T05:23:17.659Z,0
2017-12-07T05:24:18.239Z,0
2017-12-07T05:25:17.600Z,0
2017-12-07T05:26:17.867Z,0
2017-12-07T05:27:17.858Z,0
2017-12-07T05:28:17.295Z,0
2017-12-07T05:29:17.823Z,0
2017-12-07T05:30:17.782Z,0
2017-12-07T05:31:17.784Z,0
2017-12-07T05:32:18.024Z,0
2017-12-07T05:33:17.457Z,0
2017-12-07T05:34:17.174Z,0
2017-12-07T05:35:17.443Z,0
2017-12-07T05:36:17.966Z,0
2017-12-07T05:37:17.384Z,0
2017-12-07T05:38:17.369Z,0
2017-12-07T05:39:17.354Z,0
2017-12-07T05:40:17.627Z,0
2017-12-07T05:41:17.588Z,0
2017-12-07T05:42:17.298Z,0
2017-12-07T05:43:17.024Z,0
2017-12-07T05:44:17.531Z,0
2017-12-07T05:45:17.254Z,0
2017-12-07T05:46:17.493Z,0
2017-12-07T05:47:16.929Z,0
2017-12-07T05:48:17.185Z,0
2017-12-07T05:49:16.891Z,0
2017-12-07T05:50:17.443Z,0
2017-12-07T05:51:17.435Z,0
2017-12-07T05:52:17.403Z,0
2017-12-07T05:53:17.925Z,0
2017-12-07T05:54:17.623Z,0
2017-12-07T05:55:17.343Z,0
2017-12-07T05:56:17.064Z,0
2017-12-07T05:57:17.238Z,0
2017-12-07T05:58:17.008Z,0
2017-12-07T05:59:17.252Z,0
2017-12-07T06:00:16.977Z,0
2017-12-07T06:01:16.944Z,0
2017-12-07T06:02:17.199Z,0
2017-12-07T06:03:17.206Z,0
2017-12-07T06:04:17.471Z,0
2017-12-07T06:05:17.170Z,0
2017-12-07T06:06:17.197Z,0
2017-12-07T06:07:16.858Z,0
2017-12-07T06:08:17.385Z,0
2017-12-07T06:09:16.799Z,0
2017-12-07T06:10:17.324Z,0
2017-12-07T06:11:17.038Z,0
2017-12-07T06:12:16.752Z,0
2017-12-07T06:13:17.545Z,0
2017-12-07T06:14:17.001Z,0
2017-12-07T06:15:16.694Z,0
2017-12-07T06:16:16.681Z,0
2017-12-07T06:17:16.929Z,0
2017-12-07T06:18:16.946Z,0
2017-12-07T06:19:16.342Z,0
2017-12-07T06:20:16.596Z,0
2017-12-07T06:21:17.135Z,0
2017-12-07T06:22:16.561Z,0
2017-12-07T06:23:16.559Z,0
2017-12-07T06:24:16.539Z,0
2017-12-07T06:25:17.054Z,0
2017-12-07T06:26:16.760Z,0
2017-12-07T06:27:16.742Z,0
2017-12-07T06:28:16.473Z,0
2017-12-07T06:29:16.977Z,0
2017-12-07T06:30:16.445Z,0
2017-12-07T06:31:16.936Z,0
2017-12-07T06:32:16.645Z,0
2017-12-07T06:33:16.085Z,0
2017-12-07T06:34:16.620Z,0
2017-12-07T06:35:16.611Z,0
2017-12-07T06:36:16.301Z,0
2017-12-07T06:37:16.284Z,0
2017-12-07T06:38:16.294Z,0
2017-12-07T06:39:16.591Z,0
2017-12-07T06:40:16.516Z,0
2017-12-07T06:41:16.765Z,0
2017-12-07T06:42:16.192Z,0
2017-12-07T06:43:16.192Z,0
2017-12-07T06:44:15.905Z,0
2017-12-07T06:45:16.407Z,0
2017-12-07T06:46:15.866Z,0
2017-12-07T06:47:16.146Z,0
2017-12-07T06:48:16.629Z,0
2017-12-07T06:49:16.098Z,0
2017-12-07T06:50:16.045Z,0
2017-12-07T06:51:16.039Z,0
2017-12-07T06:52:16.004Z,0
2017-12-07T06:53:16.270Z,5
2017-12-07T06:54:15.969Z,5
2017-12-07T06:55:15.682Z,5
2017-12-07T06:56:15.937Z,5
2017-12-07T06:57:15.913Z,5
2017-12-07T06:58:16.507Z,5
2017-12-07T06:59:15.880Z,5
2017-12-07T07:00:15.863Z,5
2017-12-07T07:01:15.597Z,5
2017-12-07T07:02:15.859Z,10
2017-12-07T07:03:15.810Z,10
2017-12-07T07:04:15.540Z,10
2017-12-07T07:05:15.770Z,10
2017-12-07T07:06:16.318Z,10
2017-12-07T07:07:16.003Z,15
2017-12-07T07:08:16.004Z,15
2017-12-07T07:09:15.985Z,15
2017-12-07T07:10:15.946Z,15
2017-12-07T07:11:15.943Z,15
2017-12-07T07:12:15.370Z,15
2017-12-07T07:13:15.369Z,20
2017-12-07T07:14:15.614Z,20
2017-12-07T07:15:15.632Z,20
2017-12-07T07:16:15.850Z,20
2017-12-07T07:17:15.280Z,20
2017-12-07T07:18:15.857Z,25
2017-12-07T07:19:16.059Z,25
2017-12-07T07:20:15.786Z,25
2017-12-07T07:21:16.043Z,25
2017-12-07T07:22:15.457Z,25
2017-12-07T07:23:15.720Z,30
2017-12-07T07:24:15.722Z,30
2017-12-07T07:25:15.433Z,30
2017-12-07T07:26:15.406Z,30
2017-12-07T07:27:15.384Z,30
2017-12-07T07:28:15.351Z,35
2017-12-07T07:29:15.352Z,35
2017-12-07T07:30:15.346Z,35
2017-12-07T07:31:15.856Z,35
2017-12-07T07:32:15.350Z,35
2017-12-07T07:33:15.531Z,35
2017-12-07T07:34:15.557Z,40
2017-12-07T07:35:15.250Z,40
2017-12-07T07:36:15.216Z,40
2017-12-07T07:37:15.192Z,40
2017-12-07T07:38:15.446Z,40
2017-12-07T07:39:15.153Z,40
2017-12-07T07:40:15.699Z,45
2017-12-07T07:41:15.134Z,45
2017-12-07T07:42:15.371Z,45
2017-12-07T07:43:15.354Z,45
2017-12-07T07:44:15.348Z,50
2017-12-07T07:45:15.047Z,50
2017-12-07T07:46:15.303Z,50
2017-12-07T07:47:15.011Z,50
2017-12-07T07:48:15.032Z,50
2017-12-07T07:49:14.974Z,50
2017-12-07T07:50:15.237Z,55
2017-12-07T07:51:15.506Z,55
2017-12-07T07:52:15.483Z,55
2017-12-07T07:53:14.905Z,55
2017-12-07T07:54:15.159Z,55
2017-12-07T07:55:14.609Z,55
2017-12-07T07:56:14.601Z,55
2017-12-07T07:57:15.376Z,55
2017-12-07T07:58:15.092Z,55
2017-12-07T07:59:15.090Z,60
2017-12-07T08:00:15.336Z,60
2017-12-07T08:01:15.035Z,60
2017-12-07T08:02:15.018Z,60
2017-12-07T08:03:15.017Z,60
2017-12-07T08:04:14.709Z,65
2017-12-07T08:05:14.704Z,70
2017-12-07T08:06:15.489Z,65
2017-12-07T08:07:14.669Z,65
2017-12-07T08:08:14.631Z,65
2017-12-07T08:09:15.192Z,65
2017-12-07T08:10:15.168Z,65
2017-12-07T08:11:14.867Z,65
2017-12-07T08:12:14.586Z,65
2017-12-07T08:13:14.275Z,65
2017-12-07T08:14:15.067Z,65
2017-12-07T08:15:14.530Z,65
2017-12-07T08:16:14.785Z,65
2017-12-07T08:17:14.224Z,65
2017-12-07T08:18:14.748Z,70
2017-12-07T08:19:15.003Z,70
2017-12-07T08:20:14.441Z,70
2017-12-07T08:21:14.137Z,70
2017-12-07T08:22:14.670Z,70
2017-12-07T08:23:14.658Z,70
2017-12-07T08:24:14.670Z,70
2017-12-07T08:25:14.384Z,70
2017-12-07T08:26:14.860Z,70
2017-12-07T08:27:14.603Z,70
2017-12-07T08:28:14.556Z,70
2017-12-07T08:29:13.992Z,70
2017-12-07T08:30:15.066Z,70
2017-12-07T08:31:14.229Z,70
2017-12-07T08:32:14.512Z,70
2017-12-07T08:33:14.196Z,70
2017-12-07T08:34:14.469Z,70
2017-12-07T08:35:14.700Z,70
2017-12-07T08:36:14.415Z,70
2017-12-07T08:37:14.146Z,75
2017-12-07T08:38:14.434Z,75
2017-12-07T08:39:14.853Z,75
2017-12-07T08:40:14.397Z,75
2017-12-07T08:41:14.335Z,75
2017-12-07T08:42:14.063Z,75
2017-12-07T08:43:13.864Z,75
2017-12-07T08:44:14.103Z,75
2017-12-07T08:45:14.504Z,75
2017-12-07T08:46:14.268Z,75
2017-12-07T08:47:14.503Z,75
2017-12-07T08:48:14.614Z,75
2017-12-07T08:49:13.798Z,75
2017-12-07T08:50:14.464Z,75
2017-12-07T08:51:13.896Z,75
2017-12-07T08:52:14.681Z,75
2017-12-07T08:53:13.933Z,75
2017-12-07T08:54:21.524Z,75
2017-12-07T08:55:14.147Z,75
2017-12-07T08:56:13.874Z,75
2017-12-07T08:57:13.516Z,75
2017-12-07T08:58:14.162Z,75
2017-12-07T08:59:14.333Z,75
2017-12-07T09:00:14.262Z,80
2017-12-07T09:01:14.577Z,80
2017-12-07T09:02:13.970Z,80
2017-12-07T09:03:14.488Z,80
2017-12-07T09:04:13.649Z,80
2017-12-07T09:05:13.911Z,80
2017-12-07T09:06:13.615Z,80
2017-12-07T09:07:13.874Z,85
2017-12-07T09:08:13.849Z,85
2017-12-07T09:09:13.832Z,85
2017-12-07T09:10:13.545Z,85
2017-12-07T09:11:13.259Z,85
2017-12-07T09:12:13.516Z,90
2017-12-07T09:13:14.059Z,90
2017-12-07T09:14:13.744Z,90
2017-12-07T09:15:14.011Z,90
2017-12-07T09:16:13.451Z,90
2017-12-07T09:17:13.424Z,90
2017-12-07T09:18:14.242Z,90
2017-12-07T09:19:13.414Z,90
2017-12-07T09:20:13.695Z,90
2017-12-07T09:21:13.622Z,90
2017-12-07T09:22:13.336Z,90
2017-12-07T09:23:13.600Z,90
2017-12-07T09:24:13.340Z,90
2017-12-07T09:25:14.105Z,90
2017-12-07T09:26:13.271Z,90
2017-12-07T09:27:13.534Z,90
2017-12-07T09:28:13.230Z,90
2017-12-07T09:29:13.525Z,90
2017-12-07T09:30:13.197Z,90
2017-12-07T09:31:12.915Z,90
2017-12-07T09:32:13.179Z,90
2017-12-07T09:33:13.173Z,90
2017-12-07T09:34:13.148Z,90
2017-12-07T09:35:13.398Z,90
2017-12-07T09:36:13.375Z,90
2017-12-07T09:37:13.371Z,90
2017-12-07T09:38:13.615Z,90
2017-12-07T09:39:13.342Z,90
2017-12-07T09:40:13.593Z,90
2017-12-07T09:41:13.016Z,85
2017-12-07T09:42:12.719Z,85
2017-12-07T09:43:12.968Z,85
2017-12-07T09:44:12.960Z,85
2017-12-07T09:45:12.968Z,85
2017-12-07T09:46:13.188Z,85
2017-12-07T09:47:12.920Z,85
2017-12-07T09:48:12.610Z,85
2017-12-07T09:49:13.438Z,85
2017-12-07T09:50:13.119Z,85
2017-12-07T09:51:13.110Z,85
2017-12-07T09:52:12.547Z,85
2017-12-07T09:53:12.814Z,85
2017-12-07T09:54:13.053Z,85
2017-12-07T09:55:13.037Z,85
2017-12-07T09:56:13.300Z,85
2017-12-07T09:57:12.726Z,85
2017-12-07T09:58:12.713Z,85
2017-12-07T09:59:12.697Z,85
2017-12-07T10:00:12.954Z,90
2017-12-07T10:01:12.391Z,90
2017-12-07T10:02:12.398Z,90
2017-12-07T10:03:12.900Z,90
2017-12-07T10:04:12.617Z,90
2017-12-07T10:05:12.613Z,90
2017-12-07T10:06:13.112Z,90
2017-12-07T10:07:12.981Z,90
2017-12-07T10:08:12.268Z,90
2017-12-07T10:09:12.266Z,90
2017-12-07T10:10:12.234Z,90
2017-12-07T10:11:13.049Z,95
2017-12-07T10:12:12.471Z,95
2017-12-07T10:13:12.727Z,90
2017-12-07T10:14:12.435Z,95
2017-12-07T10:15:13.003Z,95
2017-12-07T10:16:12.420Z,95
2017-12-07T10:17:12.663Z,95
2017-12-07T10:18:12.381Z,95
2017-12-07T10:19:12.456Z,95
2017-12-07T10:20:12.896Z,95
2017-12-07T10:21:12.591Z,95
2017-12-07T10:22:12.306Z,95
2017-12-07T10:23:12.288Z,95
2017-12-07T10:24:12.280Z,95
2017-12-07T10:25:12.020Z,95
2017-12-07T10:26:12.554Z,95
2017-12-07T10:27:12.216Z,95
2017-12-07T10:28:12.601Z,95
2017-12-07T10:29:12.500Z,95
2017-12-07T10:30:12.169Z,95
2017-12-07T10:31:12.713Z,95
2017-12-07T10:32:12.680Z,95
2017-12-07T10:33:12.122Z,95
2017-12-07T10:34:12.400Z,95
2017-12-07T10:35:12.369Z,95
2017-12-07T10:36:12.357Z,95
2017-12-07T10:37:12.051Z,95
2017-12-07T10:38:12.056Z,95
2017-12-07T10:39:12.301Z,95
2017-12-07T10:40:12.540Z,95
2017-12-07T10:41:12.277Z,95
2017-12-07T10:42:11.717Z,95
2017-12-07T10:43:11.951Z,95
2017-12-07T10:44:12.512Z,95
2017-12-07T10:45:11.923Z,95
2017-12-07T10:46:12.193Z,95
2017-12-07T10:47:11.613Z,95
2017-12-07T10:48:12.161Z,100
2017-12-07T10:49:11.855Z,100
2017-12-07T10:50:11.838Z,100
2017-12-07T10:51:11.821Z,100
2017-12-07T10:52:12.616Z,100
2017-12-07T10:53:11.521Z,100
2017-12-07T10:54:11.778Z,100
2017-12-07T10:55:12.026Z,100
2017-12-07T10:56:12.282Z,100
2017-12-07T10:57:11.991Z,100
2017-12-07T10:58:11.704Z,100
2017-12-07T10:59:12.167Z,100
2017-12-07T11:00:11.942Z,100
2017-12-07T11:01:12.206Z,100
2017-12-07T11:02:11.635Z,100
2017-12-07T11:03:12.160Z,100
2017-12-07T11:04:11.896Z,100
2017-12-07T11:05:13.039Z,100
2017-12-07T11:06:11.571Z,100
2017-12-07T11:07:11.840Z,100
2017-12-07T11:08:12.095Z,100
2017-12-07T11:09:11.531Z,100
2017-12-07T11:10:12.100Z,95
2017-12-07T11:11:11.217Z,95
2017-12-07T11:12:11.489Z,95
2017-12-07T11:13:11.456Z,95
2017-12-07T11:14:12.023Z,95
2017-12-07T11:15:11.696Z,95
2017-12-07T11:16:11.413Z,95
2017-12-07T11:17:11.663Z,95
2017-12-07T11:18:11.383Z,95
2017-12-07T11:19:11.371Z,95
2017-12-07T11:20:11.068Z,95
2017-12-07T11:21:11.603Z,95
2017-12-07T11:22:11.310Z,95
2017-12-07T11:23:11.884Z,95
2017-12-07T11:24:11.049Z,95
2017-12-07T11:25:11.258Z,90
2017-12-07T11:26:11.369Z,95
2017-12-07T11:27:11.227Z,90
2017-12-07T11:28:11.233Z,90
2017-12-07T11:29:11.464Z,90
2017-12-07T11:30:11.459Z,90
2017-12-07T11:31:10.889Z,90
2017-12-07T11:32:10.891Z,90
2017-12-07T11:33:11.164Z,90
2017-12-07T11:34:11.314Z,90
2017-12-07T11:35:11.364Z,90
2017-12-07T11:36:11.120Z,90
2017-12-07T11:37:11.344Z,90
2017-12-07T11:38:11.073Z,90
2017-12-07T11:39:11.044Z,90
2017-12-07T11:40:11.021Z,90
2017-12-07T11:41:11.013Z,90
2017-12-07T11:42:10.988Z,90
2017-12-07T11:43:10.972Z,90
2017-12-07T11:44:11.222Z,90
2017-12-07T11:45:11.201Z,90
2017-12-07T11:46:11.224Z,90
2017-12-07T11:47:10.897Z,90
2017-12-07T11:48:10.886Z,90
2017-12-07T11:49:11.159Z,90
2017-12-07T11:50:11.661Z,90
2017-12-07T11:51:10.835Z,90
2017-12-07T11:52:10.562Z,90
2017-12-07T11:53:10.528Z,90
2017-12-07T11:54:10.784Z,90
2017-12-07T11:55:10.500Z,90
2017-12-07T11:56:10.749Z,90
2017-12-07T11:57:11.275Z,90
2017-12-07T11:58:10.724Z,90
2017-12-07T11:59:10.700Z,90
2017-12-07T12:00:10.695Z,90
2017-12-07T12:01:10.966Z,90
2017-12-07T12:02:10.661Z,90
2017-12-07T12:03:10.917Z,90
2017-12-07T12:04:10.893Z,90
2017-12-07T12:05:10.608Z,90
2017-12-07T12:06:10.882Z,90
2017-12-07T12:07:11.408Z,90
2017-12-07T12:08:10.925Z,90
2017-12-07T12:09:10.812Z,90
2017-12-07T12:10:10.254Z,90
2017-12-07T12:11:10.523Z,90
2017-12-07T12:12:10.508Z,90
2017-12-07T12:13:11.048Z,90
2017-12-07T12:14:10.477Z,85
2017-12-07T12:15:10.451Z,85
2017-12-07T12:16:10.977Z,85
2017-12-07T12:17:10.436Z,85
2017-12-07T12:18:10.406Z,85
2017-12-07T12:19:10.111Z,85
2017-12-07T12:20:10.635Z,85
2017-12-07T12:21:10.384Z,85
2017-12-07T12:22:10.335Z,85
2017-12-07T12:23:10.629Z,85
2017-12-07T12:24:10.576Z,85
2017-12-07T12:25:10.283Z,85
2017-12-07T12:26:10.540Z,85
2017-12-07T12:27:10.792Z,85
2017-12-07T12:28:10.507Z,85
2017-12-07T12:29:10.222Z,85
2017-12-07T12:30:10.203Z,85
2017-12-07T12:31:10.494Z,85
2017-12-07T12:32:10.711Z,85
2017-12-07T12:33:10.697Z,85
2017-12-07T12:34:09.884Z,80
2017-12-07T12:35:10.404Z,80
2017-12-07T12:36:09.834Z,80
2017-12-07T12:37:09.818Z,80
2017-12-07T12:38:10.342Z,80
2017-12-07T12:39:09.786Z,80
2017-12-07T12:40:10.339Z,80
2017-12-07T12:41:10.587Z,80
2017-12-07T12:42:10.301Z,80
2017-12-07T12:43:10.279Z,80
2017-12-07T12:44:10.526Z,80
2017-12-07T12:45:10.252Z,80
2017-12-07T12:46:09.693Z,80
2017-12-07T12:47:09.931Z,80
2017-12-07T12:48:10.458Z,80
2017-12-07T12:49:10.441Z,80
2017-12-07T12:50:09.613Z,80
2017-12-07T12:51:10.149Z,80
2017-12-07T12:52:09.851Z,80
2017-12-07T12:53:09.834Z,80
2017-12-07T12:54:10.097Z,75
2017-12-07T12:55:09.810Z,75
2017-12-07T12:56:10.083Z,75
2017-12-07T12:57:10.042Z,75
2017-12-07T12:58:09.768Z,75
2017-12-07T12:59:10.009Z,75
2017-12-07T13:00:09.730Z,75
2017-12-07T13:01:09.998Z,75
2017-12-07T13:02:09.960Z,75
2017-12-07T13:03:09.405Z,75
2017-12-07T13:04:09.932Z,75
2017-12-07T13:05:09.644Z,75
2017-12-07T13:06:10.192Z,75
2017-12-07T13:07:09.340Z,75
2017-12-07T13:08:09.894Z,75
2017-12-07T13:09:10.126Z,75
2017-12-07T13:10:09.562Z,75
2017-12-07T13:11:09.549Z,75
2017-12-07T13:12:09.533Z,75
2017-12-07T13:13:09.528Z,70
2017-12-07T13:14:10.317Z,70
2017-12-07T13:15:09.493Z,70
2017-12-07T13:16:09.746Z,70
2017-12-07T13:17:09.738Z,70
2017-12-07T13:18:09.168Z,70
2017-12-07T13:19:09.447Z,70
2017-12-07T13:20:09.880Z,70
2017-12-07T13:21:09.690Z,70
2017-12-07T13:22:09.651Z,70
2017-12-07T13:23:09.638Z,70
2017-12-07T13:24:09.359Z,70
2017-12-07T13:25:09.610Z,70
2017-12-07T13:26:09.042Z,70
2017-12-07T13:27:09.298Z,70
2017-12-07T13:28:09.619Z,70
2017-12-07T13:29:08.995Z,70
2017-12-07T13:30:09.520Z,65
2017-12-07T13:31:09.778Z,65
2017-12-07T13:32:09.227Z,65
2017-12-07T13:33:09.480Z,65
2017-12-07T13:34:09.188Z,65
2017-12-07T13:35:09.486Z,65
2017-12-07T13:36:09.426Z,65
2017-12-07T13:37:09.142Z,65
2017-12-07T13:38:09.146Z,65
2017-12-07T13:39:09.115Z,65
2017-12-07T13:40:09.653Z,65
2017-12-07T13:41:09.093Z,65
2017-12-07T13:42:09.340Z,65
2017-12-07T13:43:09.064Z,60
2017-12-07T13:44:09.043Z,60
2017-12-07T13:45:09.044Z,60
2017-12-07T13:46:08.997Z,60
2017-12-07T13:47:08.985Z,60
2017-12-07T13:48:08.705Z,60
2017-12-07T13:49:08.970Z,60
2017-12-07T13:50:09.495Z,60
2017-12-07T13:51:08.660Z,60
2017-12-07T13:52:09.177Z,60
2017-12-07T13:53:08.620Z,60
2017-12-07T13:54:09.431Z,55
2017-12-07T13:55:08.585Z,55
2017-12-07T13:56:09.109Z,55
2017-12-07T13:57:08.841Z,55
2017-12-07T13:58:09.362Z,55
2017-12-07T13:59:09.068Z,55
2017-12-07T14:00:08.782Z,55
2017-12-07T14:01:09.296Z,55
2017-12-07T14:02:08.744Z,55
2017-12-07T14:03:08.997Z,55
2017-12-07T14:04:08.474Z,55
2017-12-07T14:05:08.966Z,50
2017-12-07T14:06:09.050Z,50
2017-12-07T14:07:08.943Z,50
2017-12-07T14:08:08.926Z,50
2017-12-07T14:09:09.189Z,50
2017-12-07T14:10:08.617Z,50
2017-12-07T14:11:08.610Z,50
2017-12-07T14:12:09.141Z,50
2017-12-07T14:13:09.131Z,50
2017-12-07T14:14:08.829Z,45
2017-12-07T14:15:08.550Z,45
2017-12-07T14:16:08.792Z,45
2017-12-07T14:17:08.785Z,45
2017-12-07T14:18:08.222Z,45
2017-12-07T14:19:08.800Z,45
2017-12-07T14:20:08.742Z,45
2017-12-07T14:21:08.176Z,40
2017-12-07T14:22:09.053Z,40
2017-12-07T14:23:08.981Z,40
2017-12-07T14:24:08.664Z,40
2017-12-07T14:25:08.763Z,40
2017-12-07T14:26:08.090Z,40
2017-12-07T14:27:08.379Z,40
2017-12-07T14:28:08.080Z,35
2017-12-07T14:29:08.605Z,35